Kingston, Washington
Current Conditions -  °F | °C
As of 1:53 PM on Friday 31 Oct 2014 (Local Time) from KPAE Reporting Station
Light Rain Light Rain  
Wind Chill: 10°   Ceiling: 700
Heat Index: 10°   Visibility: 4mi
Dew Point:   Wind: 0mph
Humidity: 89%   Direction: NA
Pressure: 29.82"   Gusts: NA
Location:  47.8°N, 122.5°W
Report Text: KPAE 312053Z 00000KT 4SM -RA BR SCT003 BKN007 OVC033 10/08 A2982 RMK AO2 SLP100 P0002 60003 T01000083 52010
Loading
Personal Weather Stations






























Interactive Weather Map
Tropical Storm Tracking
New forecast layout! Learn more

10-Day Weather Forecast

Advertisements
Track Severe Weather on mobile